sensor_id;sensor_type;location;lat;lon;timestamp;temperature;humidity
67890;DHT22;54685;52.082;5.426;2023-09-07T00:01:01;18.80;99.90
67890;DHT22;54685;52.082;5.426;2023-09-07T00:03:31;18.80;99.90
67890;DHT22;54685;52.082;5.426;2023-09-07T00:05:58;18.80;99.90
67890;DHT22;54685;52.082;5.426;2023-09-07T00:08:24;18.80;99.90
67890;DHT22;54685;52.082;5.426;2023-09-07T00:10:52;18.70;99.90
67890;DHT22;54685;52.082;5.426;2023-09-07T00:13:19;18.60;99.90
67890;DHT22;54685;52.082;5.426;2023-09-07T00:15:45;18.50;99.90
67890;DHT22;54685;52.082;5.426;2023-09-07T00:18:12;18.50;99.90
67890;DHT22;54685;52.082;5.426;2023-09-07T00:20:39;18.40;99.90
67890;DHT22;54685;52.082;5.426;2023-09-07T00:23:07;18.40;99.90
67890;DHT22;54685;52.082;5.426;2023-09-07T00:25:34;18.40;99.90
67890;DHT22;54685;52.082;5.426;2023-09-07T00:28:00;18.40;99.90
67890;DHT22;54685;52.082;5.426;2023-09-07T00:30:27;18.30;99.90
67890;DHT22;54685;52.082;5.426;2023-09-07T00:32:54;18.30;99.90
67890;DHT22;54685;52.082;5.426;2023-09-07T00:35:21;18.20;99.90
67890;DHT22;54685;52.082;5.426;2023-09-07T00:37:48;18.20;99.90
67890;DHT22;54685;52.082;5.426;2023-09-07T00:40:15;18.20;99.90
67890;DHT22;54685;52.082;5.426;2023-09-07T00:42:42;18.10;99.90
67890;DHT22;54685;52.082;5.426;2023-09-07T00:45:09;18.10;99.90
67890;DHT22;54685;52.082;5.426;2023-09-07T00:47:36;18.10;99.90
67890;DHT22;54685;52.082;5.426;2023-09-07T00:50:05;18.10;99.90
67890;DHT22;54685;52.082;5.426;2023-09-07T00:52:34;18.10;99.90
67890;DHT22;54685;52.082;5.426;2023-09-07T00:55:02;18.00;99.90
67890;DHT22;54685;52.082;5.426;2023-09-07T00:57:32;18.00;99.90
67890;DHT22;54685;52.082;5.426;2023-09-07T00:59:59;18.00;99.90
67890;DHT22;54685;52.082;5.426;2023-09-07T01:02:27;17.90;99.90
67890;DHT22;54685;52.082;5.426;2023-09-07T01:04:57;17.90;99.90
67890;DHT22;54685;52.082;5.426;2023-09-07T01:07:46;17.80;99.90
67890;DHT22;54685;52.082;5.426;2023-09-07T01:10:14;17.80;99.90
67890;DHT22;54685;52.082;5.426;2023-09-07T01:12:42;17.70;99.90
67890;DHT22;54685;52.082;5.426;2023-09-07T01:15:09;17.70;99.90
67890;DHT22;54685;52.082;5.426;2023-09-07T01:17:36;17.70;99.90
67890;DHT22;54685;52.082;5.426;2023-09-07T01:20:05;17.70;99.90
67890;DHT22;54685;52.082;5.426;2023-09-07T01:22:36;17.70;99.90
67890;DHT22;54685;52.082;5.426;2023-09-07T01:25:05;17.60;99.90
67890;DHT22;54685;52.082;5.426;2023-09-07T01:27:34;17.60;99.90
67890;DHT22;54685;52.082;5.426;2023-09-07T01:30:01;17.60;99.90
67890;DHT22;54685;52.082;5.426;2023-09-07T01:32:30;17.60;99.90
67890;DHT22;54685;52.082;5.426;2023-09-07T01:34:57;17.60;99.90
67890;DHT22;54685;52.082;5.426;2023-09-07T01:37:25;17.60;99.90
67890;DHT22;54685;52.082;5.426;2023-09-07T01:39:52;17.60;99.90
67890;DHT22;54685;52.082;5.426;2023-09-07T01:42:19;17.60;99.90
67890;DHT22;54685;52.082;5.426;2023-09-07T01:44:48;17.50;99.90
67890;DHT22;54685;52.082;5.426;2023-09-07T01:47:15;17.50;99.90
67890;DHT22;54685;52.082;5.426;2023-09-07T01:49:42;17.50;99.90
67890;DHT22;54685;52.082;5.426;2023-09-07T01:52:09;17.50;99.90
67890;DHT22;54685;52.082;5.426;2023-09-07T01:54:36;17.40;99.90
67890;DHT22;54685;52.082;5.426;2023-09-07T01:57:03;17.40;99.90
67890;DHT22;54685;52.082;5.426;2023-09-07T01:59:30;17.40;99.90
67890;DHT22;54685;52.082;5.426;2023-09-07T02:01:57;17.30;99.90
67890;DHT22;54685;52.082;5.426;2023-09-07T02:04:24;17.30;99.90
67890;DHT22;54685;52.082;5.426;2023-09-07T02:06:50;17.20;99.90
67890;DHT22;54685;52.082;5.426;2023-09-07T02:09:17;17.20;99.90
67890;DHT22;54685;52.082;5.426;2023-09-07T02:11:44;17.20;99.90
67890;DHT22;54685;52.082;5.426;2023-09-07T02:14:11;17.20;99.90
67890;DHT22;54685;52.082;5.426;2023-09-07T02:16:39;17.10;99.90
67890;DHT22;54685;52.082;5.426;2023-09-07T02:19:06;17.10;99.90
67890;DHT22;54685;52.082;5.426;2023-09-07T02:21:36;17.10;99.90
67890;DHT22;54685;52.082;5.426;2023-09-07T02:24:03;17.10;99.90
67890;DHT22;54685;52.082;5.426;2023-09-07T02:26:29;17.00;99.90
67890;DHT22;54685;52.082;5.426;2023-09-07T02:28:56;17.00;99.90
67890;DHT22;54685;52.082;5.426;2023-09-07T02:31:23;17.00;99.90
67890;DHT22;54685;52.082;5.426;2023-09-07T02:33:50;17.00;99.90
67890;DHT22;54685;52.082;5.426;2023-09-07T02:36:17;16.90;99.90
67890;DHT22;54685;52.082;5.426;2023-09-07T02:38:44;16.90;99.90
67890;DHT22;54685;52.082;5.426;2023-09-07T02:41:11;16.90;99.90
67890;DHT22;54685;52.082;5.426;2023-09-07T02:43:38;16.80;99.90
67890;DHT22;54685;52.082;5.426;2023-09-07T02:46:05;16.80;99.90
67890;DHT22;54685;52.082;5.426;2023-09-07T02:48:32;16.80;99.90
67890;DHT22;54685;52.082;5.426;2023-09-07T02:51:00;16.70;99.90
67890;DHT22;54685;52.082;5.426;2023-09-07T02:53:27;16.70;99.90
67890;DHT22;54685;52.082;5.426;2023-09-07T02:55:55;16.60;99.90
67890;DHT22;54685;52.082;5.426;2023-09-07T02:58:23;16.60;99.90
67890;DHT22;54685;52.082;5.426;2023-09-07T03:00:51;16.60;99.90
67890;DHT22;54685;52.082;5.426;2023-09-07T03:03:20;16.60;99.90
67890;DHT22;54685;52.082;5.426;2023-09-07T03:05:47;16.60;99.90
67890;DHT22;54685;52.082;5.426;2023-09-07T03:08:14;16.60;99.90
67890;DHT22;54685;52.082;5.426;2023-09-07T03:10:41;16.60;99.90
67890;DHT22;54685;52.082;5.426;2023-09-07T03:13:09;16.50;99.90
67890;DHT22;54685;52.082;5.426;2023-09-07T03:15:37;16.60;99.90
67890;DHT22;54685;52.082;5.426;2023-09-07T03:18:07;16.60;99.90
67890;DHT22;54685;52.082;5.426;2023-09-07T03:20:36;16.60;99.90
67890;DHT22;54685;52.082;5.426;2023-09-07T03:23:03;16.60;99.90
67890;DHT22;54685;52.082;5.426;2023-09-07T03:25:30;16.50;99.90
67890;DHT22;54685;52.082;5.426;2023-09-07T03:27:57;16.60;99.90
67890;DHT22;54685;52.082;5.426;2023-09-07T03:30:24;16.50;99.90
67890;DHT22;54685;52.082;5.426;2023-09-07T03:32:53;16.50;99.90
67890;DHT22;54685;52.082;5.426;2023-09-07T03:35:20;16.40;99.90
67890;DHT22;54685;52.082;5.426;2023-09-07T03:37:47;16.30;99.90
67890;DHT22;54685;52.082;5.426;2023-09-07T03:40:14;16.30;99.90
67890;DHT22;54685;52.082;5.426;2023-09-07T03:42:41;16.30;99.90
67890;DHT22;54685;52.082;5.426;2023-09-07T03:45:10;16.30;99.90
67890;DHT22;54685;52.082;5.426;2023-09-07T03:47:37;16.20;99.90
67890;DHT22;54685;52.082;5.426;2023-09-07T03:50:05;16.20;99.90
67890;DHT22;54685;52.082;5.426;2023-09-07T03:52:33;16.20;99.90
67890;DHT22;54685;52.082;5.426;2023-09-07T03:55:01;16.10;99.90
67890;DHT22;54685;52.082;5.426;2023-09-07T03:57:29;16.10;99.90
67890;DHT22;54685;52.082;5.426;2023-09-07T03:59:58;16.10;99.90
67890;DHT22;54685;52.082;5.426;2023-09-07T04:02:25;16.10;99.90
67890;DHT22;54685;52.082;5.426;2023-09-07T04:04:54;16.00;99.90
67890;DHT22;54685;52.082;5.426;2023-09-07T04:07:22;16.10;99.90
67890;DHT22;54685;52.082;5.426;2023-09-07T04:09:50;16.10;99.90
67890;DHT22;54685;52.082;5.426;2023-09-07T04:12:17;16.00;99.90
67890;DHT22;54685;52.082;5.426;2023-09-07T04:14:44;16.10;99.90
67890;DHT22;54685;52.082;5.426;2023-09-07T04:17:14;16.10;99.90
67890;DHT22;54685;52.082;5.426;2023-09-07T04:19:41;16.10;99.90
67890;DHT22;54685;52.082;5.426;2023-09-07T04:22:11;16.00;99.90
67890;DHT22;54685;52.082;5.426;2023-09-07T04:24:38;16.00;99.90
67890;DHT22;54685;52.082;5.426;2023-09-07T04:27:06;16.00;99.90
67890;DHT22;54685;52.082;5.426;2023-09-07T04:29:33;16.00;99.90
67890;DHT22;54685;52.082;5.426;2023-09-07T04:32:00;15.90;99.90
67890;DHT22;54685;52.082;5.426;2023-09-07T04:34:27;15.90;99.90
67890;DHT22;54685;52.082;5.426;2023-09-07T04:36:54;15.90;99.90
67890;DHT22;54685;52.082;5.426;2023-09-07T04:39:21;15.90;99.90
67890;DHT22;54685;52.082;5.426;2023-09-07T04:41:48;15.90;99.90
67890;DHT22;54685;52.082;5.426;2023-09-07T04:44:15;15.90;99.90
67890;DHT22;54685;52.082;5.426;2023-09-07T04:46:42;15.80;99.90
67890;DHT22;54685;52.082;5.426;2023-09-07T04:49:10;15.80;99.90
67890;DHT22;54685;52.082;5.426;2023-09-07T04:51:37;15.80;99.90
67890;DHT22;54685;52.082;5.426;2023-09-07T04:54:04;15.80;99.90
67890;DHT22;54685;52.082;5.426;2023-09-07T04:56:31;15.70;99.90
67890;DHT22;54685;52.082;5.426;2023-09-07T04:58:58;15.70;99.90
67890;DHT22;54685;52.082;5.426;2023-09-07T05:01:25;15.70;99.90
67890;DHT22;54685;52.082;5.426;2023-09-07T05:03:54;15.70;99.90
67890;DHT22;54685;52.082;5.426;2023-09-07T05:06:22;15.70;99.90
67890;DHT22;54685;52.082;5.426;2023-09-07T05:08:51;15.70;99.90
67890;DHT22;54685;52.082;5.426;2023-09-07T05:11:17;15.60;99.90
67890;DHT22;54685;52.082;5.426;2023-09-07T05:13:44;15.70;99.90
67890;DHT22;54685;52.082;5.426;2023-09-07T05:16:11;15.70;99.90
67890;DHT22;54685;52.082;5.426;2023-09-07T05:18:41;15.70;99.90
67890;DHT22;54685;52.082;5.426;2023-09-07T05:21:15;15.60;99.90
67890;DHT22;54685;52.082;5.426;2023-09-07T05:23:42;15.60;99.90
67890;DHT22;54685;52.082;5.426;2023-09-07T05:26:10;15.70;99.90
67890;DHT22;54685;52.082;5.426;2023-09-07T05:28:37;15.60;99.90
67890;DHT22;54685;52.082;5.426;2023-09-07T05:31:03;15.60;99.90
67890;DHT22;54685;52.082;5.426;2023-09-07T05:33:32;15.70;99.90
67890;DHT22;54685;52.082;5.426;2023-09-07T05:35:59;15.60;99.90
67890;DHT22;54685;52.082;5.426;2023-09-07T05:38:26;15.70;99.90
67890;DHT22;54685;52.082;5.426;2023-09-07T05:40:54;15.60;99.90
67890;DHT22;54685;52.082;5.426;2023-09-07T05:43:23;15.70;99.90
67890;DHT22;54685;52.082;5.426;2023-09-07T05:45:50;15.70;99.90
67890;DHT22;54685;52.082;5.426;2023-09-07T05:48:17;15.60;99.90
67890;DHT22;54685;52.082;5.426;2023-09-07T05:50:45;15.70;99.90
67890;DHT22;54685;52.082;5.426;2023-09-07T05:53:12;15.70;99.90
67890;DHT22;54685;52.082;5.426;2023-09-07T05:55:39;15.70;99.90
67890;DHT22;54685;52.082;5.426;2023-09-07T05:58:08;15.80;99.90
67890;DHT22;54685;52.082;5.426;2023-09-07T06:00:38;15.80;99.90
67890;DHT22;54685;52.082;5.426;2023-09-07T06:03:10;15.90;99.90
67890;DHT22;54685;52.082;5.426;2023-09-07T06:05:38;15.90;99.90
67890;DHT22;54685;52.082;5.426;2023-09-07T06:08:08;16.00;99.90
67890;DHT22;54685;52.082;5.426;2023-09-07T06:10:35;16.00;99.90
67890;DHT22;54685;52.082;5.426;2023-09-07T06:13:04;16.10;99.90
67890;DHT22;54685;52.082;5.426;2023-09-07T06:15:31;16.10;99.90
67890;DHT22;54685;52.082;5.426;2023-09-07T06:17:58;16.20;99.90
67890;DHT22;54685;52.082;5.426;2023-09-07T06:20:28;16.20;99.90
67890;DHT22;54685;52.082;5.426;2023-09-07T06:22:57;16.30;99.90
67890;DHT22;54685;52.082;5.426;2023-09-07T06:25:24;16.40;99.90
67890;DHT22;54685;52.082;5.426;2023-09-07T06:27:53;16.40;99.90
67890;DHT22;54685;52.082;5.426;2023-09-07T06:30:20;16.40;99.90
67890;DHT22;54685;52.082;5.426;2023-09-07T06:32:47;16.50;99.90
67890;DHT22;54685;52.082;5.426;2023-09-07T06:35:15;16.60;99.90
67890;DHT22;54685;52.082;5.426;2023-09-07T06:37:42;16.60;99.90
67890;DHT22;54685;52.082;5.426;2023-09-07T06:40:12;16.70;99.90
67890;DHT22;54685;52.082;5.426;2023-09-07T06:42:41;16.70;99.90
67890;DHT22;54685;52.082;5.426;2023-09-07T06:45:14;16.80;99.90
67890;DHT22;54685;52.082;5.426;2023-09-07T06:47:41;16.90;99.90
67890;DHT22;54685;52.082;5.426;2023-09-07T06:50:09;17.00;99.90
67890;DHT22;54685;52.082;5.426;2023-09-07T06:52:37;17.10;99.90
67890;DHT22;54685;52.082;5.426;2023-09-07T06:55:05;17.20;99.90
67890;DHT22;54685;52.082;5.426;2023-09-07T06:57:32;17.20;99.90
67890;DHT22;54685;52.082;5.426;2023-09-07T07:00:03;17.30;99.90
67890;DHT22;54685;52.082;5.426;2023-09-07T07:02:32;17.40;99.90
67890;DHT22;54685;52.082;5.426;2023-09-07T07:04:59;17.40;99.90
67890;DHT22;54685;52.082;5.426;2023-09-07T07:07:26;17.50;99.90
67890;DHT22;54685;52.082;5.426;2023-09-07T07:09:53;17.50;99.90
67890;DHT22;54685;52.082;5.426;2023-09-07T07:12:20;17.60;99.90
67890;DHT22;54685;52.082;5.426;2023-09-07T07:14:47;17.70;99.90
67890;DHT22;54685;52.082;5.426;2023-09-07T07:17:15;17.80;99.90
67890;DHT22;54685;52.082;5.426;2023-09-07T07:19:42;17.90;99.90
67890;DHT22;54685;52.082;5.426;2023-09-07T07:22:10;18.00;99.90
67890;DHT22;54685;52.082;5.426;2023-09-07T07:24:37;18.00;99.90
67890;DHT22;54685;52.082;5.426;2023-09-07T07:27:03;18.20;99.90
67890;DHT22;54685;52.082;5.426;2023-09-07T07:29:33;18.30;99.90
67890;DHT22;54685;52.082;5.426;2023-09-07T07:32:01;18.40;99.90
67890;DHT22;54685;52.082;5.426;2023-09-07T07:34:28;18.50;99.90
67890;DHT22;54685;52.082;5.426;2023-09-07T07:36:55;18.60;99.90
67890;DHT22;54685;52.082;5.426;2023-09-07T07:39:23;18.60;99.90
67890;DHT22;54685;52.082;5.426;2023-09-07T07:41:50;18.70;99.90
67890;DHT22;54685;52.082;5.426;2023-09-07T07:44:17;18.80;99.90
67890;DHT22;54685;52.082;5.426;2023-09-07T07:46:45;18.80;99.90
67890;DHT22;54685;52.082;5.426;2023-09-07T07:49:13;18.90;99.90
67890;DHT22;54685;52.082;5.426;2023-09-07T07:51:41;18.90;99.90
67890;DHT22;54685;52.082;5.426;2023-09-07T07:54:08;19.00;99.90
67890;DHT22;54685;52.082;5.426;2023-09-07T07:56:35;19.10;99.90
67890;DHT22;54685;52.082;5.426;2023-09-07T07:59:02;19.20;99.90
67890;DHT22;54685;52.082;5.426;2023-09-07T08:01:29;19.20;99.90
67890;DHT22;54685;52.082;5.426;2023-09-07T08:03:58;19.40;99.90
67890;DHT22;54685;52.082;5.426;2023-09-07T08:06:29;19.50;99.90
67890;DHT22;54685;52.082;5.426;2023-09-07T08:08:56;19.60;99.90
67890;DHT22;54685;52.082;5.426;2023-09-07T08:11:23;19.70;99.90
67890;DHT22;54685;52.082;5.426;2023-09-07T08:13:51;19.80;99.90
67890;DHT22;54685;52.082;5.426;2023-09-07T08:16:18;20.00;99.90
67890;DHT22;54685;52.082;5.426;2023-09-07T08:18:45;20.10;99.90
67890;DHT22;54685;52.082;5.426;2023-09-07T08:21:14;20.20;99.90
67890;DHT22;54685;52.082;5.426;2023-09-07T08:23:43;20.30;99.90
67890;DHT22;54685;52.082;5.426;2023-09-07T08:26:10;20.50;99.90
67890;DHT22;54685;52.082;5.426;2023-09-07T08:28:39;20.60;99.90
67890;DHT22;54685;52.082;5.426;2023-09-07T08:31:05;20.70;99.90
67890;DHT22;54685;52.082;5.426;2023-09-07T08:33:32;20.80;99.90
67890;DHT22;54685;52.082;5.426;2023-09-07T08:36:06;20.90;99.90
67890;DHT22;54685;52.082;5.426;2023-09-07T08:38:35;21.00;99.90
67890;DHT22;54685;52.082;5.426;2023-09-07T08:41:02;21.10;99.90
67890;DHT22;54685;52.082;5.426;2023-09-07T08:43:35;21.20;99.90
67890;DHT22;54685;52.082;5.426;2023-09-07T08:46:15;21.30;99.90
67890;DHT22;54685;52.082;5.426;2023-09-07T08:48:44;21.50;99.90
67890;DHT22;54685;52.082;5.426;2023-09-07T08:51:16;21.60;99.90
67890;DHT22;54685;52.082;5.426;2023-09-07T08:53:44;21.80;99.90
67890;DHT22;54685;52.082;5.426;2023-09-07T08:56:13;21.90;99.90
67890;DHT22;54685;52.082;5.426;2023-09-07T08:58:42;22.00;99.90
67890;DHT22;54685;52.082;5.426;2023-09-07T09:01:11;22.10;99.90
67890;DHT22;54685;52.082;5.426;2023-09-07T09:03:40;22.30;99.90
67890;DHT22;54685;52.082;5.426;2023-09-07T09:06:08;22.40;99.90
67890;DHT22;54685;52.082;5.426;2023-09-07T09:08:43;22.70;99.90
67890;DHT22;54685;52.082;5.426;2023-09-07T09:11:11;22.90;99.90
67890;DHT22;54685;52.082;5.426;2023-09-07T09:13:40;23.10;99.90
67890;DHT22;54685;52.082;5.426;2023-09-07T09:16:07;23.10;99.90
67890;DHT22;54685;52.082;5.426;2023-09-07T09:18:33;23.30;99.90
67890;DHT22;54685;52.082;5.426;2023-09-07T09:21:01;23.40;99.90
67890;DHT22;54685;52.082;5.426;2023-09-07T09:23:35;23.60;99.90
67890;DHT22;54685;52.082;5.426;2023-09-07T09:26:03;23.90;99.90
67890;DHT22;54685;52.082;5.426;2023-09-07T09:28:32;24.10;99.90
67890;DHT22;54685;52.082;5.426;2023-09-07T09:31:03;24.50;97.70
67890;DHT22;54685;52.082;5.426;2023-09-07T09:33:31;25.00;99.10
67890;DHT22;54685;52.082;5.426;2023-09-07T09:35:58;25.50;96.20
67890;DHT22;54685;52.082;5.426;2023-09-07T09:38:25;25.90;93.60
67890;DHT22;54685;52.082;5.426;2023-09-07T09:40:52;26.50;90.90
67890;DHT22;54685;52.082;5.426;2023-09-07T09:43:20;26.90;85.10
67890;DHT22;54685;52.082;5.426;2023-09-07T09:45:48;27.30;76.70
67890;DHT22;54685;52.082;5.426;2023-09-07T09:48:19;27.70;73.70
67890;DHT22;54685;52.082;5.426;2023-09-07T09:50:47;28.10;76.20
67890;DHT22;54685;52.082;5.426;2023-09-07T09:53:18;28.50;72.30
67890;DHT22;54685;52.082;5.426;2023-09-07T09:55:50;28.90;64.30
67890;DHT22;54685;52.082;5.426;2023-09-07T09:58:20;29.20;59.70
67890;DHT22;54685;52.082;5.426;2023-09-07T10:00:54;29.40;57.30
67890;DHT22;54685;52.082;5.426;2023-09-07T10:03:34;29.80;53.50
67890;DHT22;54685;52.082;5.426;2023-09-07T10:06:23;29.90;53.30
67890;DHT22;54685;52.082;5.426;2023-09-07T10:09:08;30.20;53.30
67890;DHT22;54685;52.082;5.426;2023-09-07T10:11:40;30.50;51.10
67890;DHT22;54685;52.082;5.426;2023-09-07T10:14:08;30.50;52.00
67890;DHT22;54685;52.082;5.426;2023-09-07T10:16:49;30.80;50.30
67890;DHT22;54685;52.082;5.426;2023-09-07T10:19:24;31.10;52.80
67890;DHT22;54685;52.082;5.426;2023-09-07T10:21:53;31.30;51.00
67890;DHT22;54685;52.082;5.426;2023-09-07T10:24:27;31.50;50.50
67890;DHT22;54685;52.082;5.426;2023-09-07T10:27:00;31.90;48.60
67890;DHT22;54685;52.082;5.426;2023-09-07T10:29:27;32.10;48.30
67890;DHT22;54685;52.082;5.426;2023-09-07T10:31:55;32.30;47.80
67890;DHT22;54685;52.082;5.426;2023-09-07T10:34:21;32.50;47.00
67890;DHT22;54685;52.082;5.426;2023-09-07T10:36:56;32.70;47.00
67890;DHT22;54685;52.082;5.426;2023-09-07T10:39:23;32.90;45.60
67890;DHT22;54685;52.082;5.426;2023-09-07T10:41:49;32.90;45.80
67890;DHT22;54685;52.082;5.426;2023-09-07T10:44:25;33.20;44.70
67890;DHT22;54685;52.082;5.426;2023-09-07T10:46:52;33.30;43.20
67890;DHT22;54685;52.082;5.426;2023-09-07T10:49:19;33.40;43.60
67890;DHT22;54685;52.082;5.426;2023-09-07T10:51:47;33.60;44.00
67890;DHT22;54685;52.082;5.426;2023-09-07T10:54:15;33.80;42.90
67890;DHT22;54685;52.082;5.426;2023-09-07T10:56:44;34.00;42.30
67890;DHT22;54685;52.082;5.426;2023-09-07T10:59:13;34.00;40.40
67890;DHT22;54685;52.082;5.426;2023-09-07T11:01:40;33.90;40.90
67890;DHT22;54685;52.082;5.426;2023-09-07T11:04:07;33.80;42.40
67890;DHT22;54685;52.082;5.426;2023-09-07T11:06:35;33.80;42.40
67890;DHT22;54685;52.082;5.426;2023-09-07T11:09:02;34.20;39.40
67890;DHT22;54685;52.082;5.426;2023-09-07T11:11:32;34.40;40.90
67890;DHT22;54685;52.082;5.426;2023-09-07T11:14:03;34.40;39.20
67890;DHT22;54685;52.082;5.426;2023-09-07T11:16:34;34.30;40.00
67890;DHT22;54685;52.082;5.426;2023-09-07T11:19:03;34.40;39.60
67890;DHT22;54685;52.082;5.426;2023-09-07T11:21:31;34.40;39.60
67890;DHT22;54685;52.082;5.426;2023-09-07T11:24:04;34.50;39.10
67890;DHT22;54685;52.082;5.426;2023-09-07T11:26:43;34.70;38.50
67890;DHT22;54685;52.082;5.426;2023-09-07T11:29:14;34.80;37.60
67890;DHT22;54685;52.082;5.426;2023-09-07T11:31:42;34.70;38.90
67890;DHT22;54685;52.082;5.426;2023-09-07T11:34:11;34.70;37.60
67890;DHT22;54685;52.082;5.426;2023-09-07T11:36:42;34.80;37.40
67890;DHT22;54685;52.082;5.426;2023-09-07T11:39:10;34.60;35.30
67890;DHT22;54685;52.082;5.426;2023-09-07T11:41:43;34.60;37.70
67890;DHT22;54685;52.082;5.426;2023-09-07T11:44:11;34.40;36.50
67890;DHT22;54685;52.082;5.426;2023-09-07T11:46:39;34.30;37.90
67890;DHT22;54685;52.082;5.426;2023-09-07T11:49:06;34.40;38.20
67890;DHT22;54685;52.082;5.426;2023-09-07T11:51:36;34.20;36.30
67890;DHT22;54685;52.082;5.426;2023-09-07T11:54:03;34.20;37.30
67890;DHT22;54685;52.082;5.426;2023-09-07T11:56:31;33.90;38.50
67890;DHT22;54685;52.082;5.426;2023-09-07T11:58:58;33.90;38.20
67890;DHT22;54685;52.082;5.426;2023-09-07T12:01:25;33.70;39.20
67890;DHT22;54685;52.082;5.426;2023-09-07T12:03:54;33.50;39.60
67890;DHT22;54685;52.082;5.426;2023-09-07T12:06:21;33.40;39.10
67890;DHT22;54685;52.082;5.426;2023-09-07T12:09:03;33.00;36.90
67890;DHT22;54685;52.082;5.426;2023-09-07T12:11:30;33.20;38.90
67890;DHT22;54685;52.082;5.426;2023-09-07T12:13:57;32.90;40.50
67890;DHT22;54685;52.082;5.426;2023-09-07T12:16:28;32.80;41.30
67890;DHT22;54685;52.082;5.426;2023-09-07T12:18:55;32.70;41.00
67890;DHT22;54685;52.082;5.426;2023-09-07T12:21:22;32.80;38.30
67890;DHT22;54685;52.082;5.426;2023-09-07T12:23:49;32.70;39.60
67890;DHT22;54685;52.082;5.426;2023-09-07T12:26:16;32.60;37.60
67890;DHT22;54685;52.082;5.426;2023-09-07T12:28:47;32.50;38.20
67890;DHT22;54685;52.082;5.426;2023-09-07T12:31:14;32.50;37.70
67890;DHT22;54685;52.082;5.426;2023-09-07T12:33:43;32.20;37.70
67890;DHT22;54685;52.082;5.426;2023-09-07T12:36:11;32.30;39.20
67890;DHT22;54685;52.082;5.426;2023-09-07T12:38:38;32.30;40.10
67890;DHT22;54685;52.082;5.426;2023-09-07T12:41:05;32.30;41.80
67890;DHT22;54685;52.082;5.426;2023-09-07T12:43:32;32.30;41.00
67890;DHT22;54685;52.082;5.426;2023-09-07T12:46:00;32.40;39.30
67890;DHT22;54685;52.082;5.426;2023-09-07T12:48:28;32.40;40.80
67890;DHT22;54685;52.082;5.426;2023-09-07T12:50:55;32.30;42.30
67890;DHT22;54685;52.082;5.426;2023-09-07T12:53:22;32.10;40.70
67890;DHT22;54685;52.082;5.426;2023-09-07T12:55:53;32.00;41.40
67890;DHT22;54685;52.082;5.426;2023-09-07T12:58:20;32.00;41.60
67890;DHT22;54685;52.082;5.426;2023-09-07T13:00:47;32.00;42.30
67890;DHT22;54685;52.082;5.426;2023-09-07T13:03:19;31.90;40.80
67890;DHT22;54685;52.082;5.426;2023-09-07T13:05:47;31.90;44.40
67890;DHT22;54685;52.082;5.426;2023-09-07T13:08:14;31.80;42.70
67890;DHT22;54685;52.082;5.426;2023-09-07T13:10:41;31.70;43.20
67890;DHT22;54685;52.082;5.426;2023-09-07T13:13:08;31.70;43.20
67890;DHT22;54685;52.082;5.426;2023-09-07T13:15:35;31.70;42.40
67890;DHT22;54685;52.082;5.426;2023-09-07T13:18:01;31.70;43.40
67890;DHT22;54685;52.082;5.426;2023-09-07T13:20:28;31.80;43.20
67890;DHT22;54685;52.082;5.426;2023-09-07T13:22:56;31.80;43.80
67890;DHT22;54685;52.082;5.426;2023-09-07T13:25:23;31.90;43.40
67890;DHT22;54685;52.082;5.426;2023-09-07T13:27:50;32.00;41.60
67890;DHT22;54685;52.082;5.426;2023-09-07T13:30:17;31.80;43.60
67890;DHT22;54685;52.082;5.426;2023-09-07T13:32:44;31.70;44.30
67890;DHT22;54685;52.082;5.426;2023-09-07T13:35:13;31.80;43.70
67890;DHT22;54685;52.082;5.426;2023-09-07T13:37:40;31.90;41.50
67890;DHT22;54685;52.082;5.426;2023-09-07T13:40:07;31.90;43.40
67890;DHT22;54685;52.082;5.426;2023-09-07T13:42:34;31.80;41.60
67890;DHT22;54685;52.082;5.426;2023-09-07T13:45:01;31.60;43.40
67890;DHT22;54685;52.082;5.426;2023-09-07T13:47:28;31.60;43.60
67890;DHT22;54685;52.082;5.426;2023-09-07T13:49:55;31.50;43.80
67890;DHT22;54685;52.082;5.426;2023-09-07T13:52:22;31.50;43.50
67890;DHT22;54685;52.082;5.426;2023-09-07T13:54:49;31.40;42.80
67890;DHT22;54685;52.082;5.426;2023-09-07T13:57:19;31.30;44.70
67890;DHT22;54685;52.082;5.426;2023-09-07T13:59:47;31.20;42.20
67890;DHT22;54685;52.082;5.426;2023-09-07T14:02:13;31.20;43.80
67890;DHT22;54685;52.082;5.426;2023-09-07T14:04:40;31.10;42.20
67890;DHT22;54685;52.082;5.426;2023-09-07T14:07:07;31.10;44.10
67890;DHT22;54685;52.082;5.426;2023-09-07T14:09:34;31.10;43.50
67890;DHT22;54685;52.082;5.426;2023-09-07T14:12:01;31.20;42.30
67890;DHT22;54685;52.082;5.426;2023-09-07T14:14:28;31.20;43.30
67890;DHT22;54685;52.082;5.426;2023-09-07T14:16:55;31.10;41.50
67890;DHT22;54685;52.082;5.426;2023-09-07T14:19:24;31.00;43.50
67890;DHT22;54685;52.082;5.426;2023-09-07T14:21:53;30.90;43.00
67890;DHT22;54685;52.082;5.426;2023-09-07T14:24:20;30.90;41.10
67890;DHT22;54685;52.082;5.426;2023-09-07T14:26:47;30.90;41.10
67890;DHT22;54685;52.082;5.426;2023-09-07T14:29:13;30.90;41.90
67890;DHT22;54685;52.082;5.426;2023-09-07T14:31:40;30.80;44.70
67890;DHT22;54685;52.082;5.426;2023-09-07T14:34:12;30.80;42.90
67890;DHT22;54685;52.082;5.426;2023-09-07T14:36:42;30.70;45.00
67890;DHT22;54685;52.082;5.426;2023-09-07T14:39:09;30.70;45.60
67890;DHT22;54685;52.082;5.426;2023-09-07T14:41:36;30.70;44.30
67890;DHT22;54685;52.082;5.426;2023-09-07T14:44:05;30.80;45.70
67890;DHT22;54685;52.082;5.426;2023-09-07T14:46:32;30.70;44.60
67890;DHT22;54685;52.082;5.426;2023-09-07T14:48:59;30.60;45.30
67890;DHT22;54685;52.082;5.426;2023-09-07T14:51:27;30.60;45.00
67890;DHT22;54685;52.082;5.426;2023-09-07T14:53:54;30.50;43.70
67890;DHT22;54685;52.082;5.426;2023-09-07T14:56:21;30.50;45.20
67890;DHT22;54685;52.082;5.426;2023-09-07T14:58:48;30.50;43.70
67890;DHT22;54685;52.082;5.426;2023-09-07T15:01:15;30.40;42.70
67890;DHT22;54685;52.082;5.426;2023-09-07T15:03:42;30.30;44.20
67890;DHT22;54685;52.082;5.426;2023-09-07T15:06:09;30.30;43.70
67890;DHT22;54685;52.082;5.426;2023-09-07T15:08:39;30.30;43.40
67890;DHT22;54685;52.082;5.426;2023-09-07T15:11:06;30.30;47.30
67890;DHT22;54685;52.082;5.426;2023-09-07T15:13:32;30.20;46.70
67890;DHT22;54685;52.082;5.426;2023-09-07T15:15:59;30.20;44.60
67890;DHT22;54685;52.082;5.426;2023-09-07T15:18:26;30.20;43.40
67890;DHT22;54685;52.082;5.426;2023-09-07T15:20:53;30.20;45.00
67890;DHT22;54685;52.082;5.426;2023-09-07T15:23:20;30.20;45.70
67890;DHT22;54685;52.082;5.426;2023-09-07T15:25:47;30.10;45.10
67890;DHT22;54685;52.082;5.426;2023-09-07T15:28:14;30.00;47.30
67890;DHT22;54685;52.082;5.426;2023-09-07T15:30:44;30.00;48.40
67890;DHT22;54685;52.082;5.426;2023-09-07T15:33:11;29.90;48.00
67890;DHT22;54685;52.082;5.426;2023-09-07T15:35:38;29.90;47.40